createdAt,value
2024-01-20T00:00:13.714Z,17.10
2024-01-20T00:02:40.494Z,18.87
2024-01-20T00:05:07.708Z,18.40
2024-01-20T00:07:34.366Z,16.60
2024-01-20T00:10:01.031Z,18.57
2024-01-20T00:12:27.745Z,16.33
2024-01-20T00:14:54.327Z,17.57
2024-01-20T00:17:25.112Z,16.20
2024-01-20T00:19:55.064Z,18.43
2024-01-20T00:22:27.430Z,19.67
2024-01-20T00:24:54.172Z,19.02
2024-01-20T00:27:20.934Z,16.30
2024-01-20T00:29:47.507Z,16.97
2024-01-20T00:32:18.030Z,17.07
2024-01-20T00:34:59.916Z,18.80
2024-01-20T00:37:34.048Z,18.50
2024-01-20T00:40:00.490Z,17.80
2024-01-20T00:42:26.972Z,18.20
2024-01-20T00:44:53.421Z,21.33
2024-01-20T00:47:19.880Z,18.63
2024-01-20T00:49:46.474Z,19.43
2024-01-20T00:52:12.976Z,19.43
2024-01-20T00:54:39.586Z,17.53
2024-01-20T00:57:06.161Z,19.17
2024-01-20T00:59:32.706Z,18.30
2024-01-20T01:01:59.346Z,18.47
2024-01-20T01:04:25.918Z,19.53
2024-01-20T01:06:52.429Z,19.73
2024-01-20T01:09:21.187Z,18.03
2024-01-20T01:11:49.829Z,19.80
2024-01-20T01:14:19.969Z,19.93
2024-01-20T01:16:47.501Z,19.07
2024-01-20T01:19:14.102Z,21.50
2024-01-20T01:21:40.590Z,19.17
2024-01-20T01:24:07.169Z,20.07
2024-01-20T01:26:33.980Z,18.43
2024-01-20T01:29:03.453Z,21.37
2024-01-20T01:31:29.908Z,18.77
2024-01-20T01:33:56.383Z,18.10
2024-01-20T01:36:22.920Z,18.43
2024-01-20T01:38:49.342Z,19.40
2024-01-20T01:41:20.467Z,18.80
2024-01-20T01:43:47.651Z,19.52
2024-01-20T01:46:35.086Z,19.53
2024-01-20T01:49:01.926Z,17.57
2024-01-20T01:51:29.363Z,21.70
2024-01-20T01:54:01.588Z,20.97
2024-01-20T01:56:29.441Z,19.70
2024-01-20T01:58:57.235Z,19.57
2024-01-20T02:01:24.261Z,18.13
2024-01-20T02:03:50.957Z,18.93
2024-01-20T02:06:20.512Z,19.20
2024-01-20T02:08:48.010Z,19.53
2024-01-20T02:11:15.938Z,20.70
2024-01-20T02:13:42.705Z,20.40
2024-01-20T02:16:09.988Z,21.03
2024-01-20T02:18:36.608Z,19.73
2024-01-20T02:21:06.658Z,19.90
2024-01-20T02:23:40.275Z,19.87
2024-01-20T02:26:07.183Z,19.03
2024-01-20T02:28:33.778Z,22.60
2024-01-20T02:31:00.256Z,21.63
2024-01-20T02:33:26.768Z,19.47
2024-01-20T02:35:53.349Z,20.63
2024-01-20T02:38:19.851Z,22.33
2024-01-20T02:40:46.306Z,20.90
2024-01-20T02:43:12.958Z,20.57
2024-01-20T02:45:39.454Z,23.33
2024-01-20T02:48:06.551Z,21.13
2024-01-20T02:50:33.202Z,22.03
2024-01-20T02:52:59.710Z,21.37
2024-01-20T02:55:26.235Z,20.83
2024-01-20T02:57:52.654Z,23.13
2024-01-20T03:00:19.091Z,22.80
2024-01-20T03:02:45.602Z,23.13
2024-01-20T03:05:12.468Z,20.93
2024-01-20T03:07:38.982Z,23.03
2024-01-20T03:10:07.711Z,23.47
2024-01-20T03:12:34.186Z,22.57
2024-01-20T03:15:00.772Z,21.07
2024-01-20T03:17:27.290Z,23.37
2024-01-20T03:19:53.820Z,22.33
2024-01-20T03:22:20.245Z,21.57
2024-01-20T03:24:48.522Z,22.43
2024-01-20T03:27:15.413Z,21.30
2024-01-20T03:29:41.919Z,23.33
2024-01-20T03:32:08.524Z,22.27
2024-01-20T03:34:35.188Z,22.17
2024-01-20T03:37:01.873Z,20.90
2024-01-20T03:39:35.380Z,18.70
2024-01-20T03:42:02.022Z,20.17
2024-01-20T03:44:31.421Z,21.83
2024-01-20T03:46:57.928Z,23.77
2024-01-20T03:49:24.588Z,22.17
2024-01-20T03:51:51.238Z,21.43
2024-01-20T03:54:17.907Z,21.33
2024-01-20T03:56:45.407Z,21.97
2024-01-20T03:59:12.096Z,22.67
2024-01-20T04:01:38.660Z,22.33
2024-01-20T04:04:05.830Z,23.07
2024-01-20T04:06:33.189Z,21.70
2024-01-20T04:08:59.760Z,19.27
2024-01-20T04:11:26.235Z,22.83
2024-01-20T04:13:52.692Z,21.90
2024-01-20T04:16:19.323Z,20.73
2024-01-20T04:18:46.011Z,19.73
2024-01-20T04:21:12.512Z,19.70
2024-01-20T04:23:38.994Z,21.90
2024-01-20T04:26:05.717Z,22.30
2024-01-20T04:28:35.247Z,20.77
2024-01-20T04:31:04.750Z,19.53
2024-01-20T04:33:31.773Z,19.73
2024-01-20T04:35:58.346Z,21.00
2024-01-20T04:38:24.800Z,20.37
2024-01-20T04:40:52.267Z,21.77
2024-01-20T04:43:18.737Z,20.87
2024-01-20T04:45:45.497Z,17.93
2024-01-20T04:48:12.375Z,19.50
2024-01-20T04:50:38.983Z,20.37
2024-01-20T04:53:05.561Z,18.10
2024-01-20T04:55:32.004Z,18.83
2024-01-20T04:57:58.473Z,20.67
2024-01-20T05:00:25.014Z,19.07
2024-01-20T05:02:51.661Z,17.73
2024-01-20T05:05:18.158Z,18.93
2024-01-20T05:07:44.771Z,19.00
2024-01-20T05:10:11.393Z,18.80
2024-01-20T05:12:37.972Z,17.13
2024-01-20T05:15:08.435Z,17.97
2024-01-20T05:17:38.479Z,20.63
2024-01-20T05:20:06.647Z,17.97
2024-01-20T05:22:33.350Z,16.93
2024-01-20T05:24:59.919Z,19.50
2024-01-20T05:27:29.244Z,18.50
2024-01-20T05:29:55.766Z,19.87
2024-01-20T05:32:22.412Z,20.70
2024-01-20T05:34:49.318Z,20.13
2024-01-20T05:37:15.844Z,20.93
2024-01-20T05:39:45.344Z,19.63
2024-01-20T05:42:11.901Z,19.97
2024-01-20T05:44:38.405Z,18.50
2024-01-20T05:47:07.314Z,18.97
2024-01-20T05:49:34.218Z,20.27
2024-01-20T05:52:00.656Z,18.67
2024-01-20T05:54:27.105Z,17.00
2024-01-20T05:56:53.587Z,18.17
2024-01-20T05:59:22.988Z,20.70
2024-01-20T06:01:51.712Z,19.33
2024-01-20T06:04:18.828Z,16.93
2024-01-20T06:06:46.910Z,18.97
2024-01-20T06:09:13.529Z,16.17
2024-01-20T06:11:39.999Z,18.63
2024-01-20T06:14:06.882Z,18.43
2024-01-20T06:16:35.179Z,18.40
2024-01-20T06:19:04.213Z,17.40
2024-01-20T06:21:30.759Z,17.87
2024-01-20T06:23:57.243Z,16.63
2024-01-20T06:26:23.704Z,17.27
2024-01-20T06:28:50.756Z,17.77
2024-01-20T06:31:27.565Z,16.00
2024-01-20T06:33:55.085Z,17.77
2024-01-20T06:36:28.057Z,18.43
2024-01-20T06:38:54.741Z,19.57
2024-01-20T06:41:21.400Z,18.73
2024-01-20T06:43:47.997Z,16.77
2024-01-20T06:46:14.774Z,17.33
2024-01-20T06:48:41.355Z,17.53
2024-01-20T06:51:07.993Z,18.37
2024-01-20T06:53:34.390Z,17.30
2024-01-20T06:56:00.838Z,17.30
2024-01-20T06:58:27.333Z,16.10
2024-01-20T07:00:53.956Z,16.63
2024-01-20T07:03:24.564Z,19.03
2024-01-20T07:05:51.252Z,17.87
2024-01-20T07:08:20.770Z,17.27
2024-01-20T07:10:47.456Z,16.00
2024-01-20T07:13:13.919Z,16.93
2024-01-20T07:15:40.804Z,17.27
2024-01-20T07:18:07.611Z,15.03
2024-01-20T07:20:34.132Z,16.20
2024-01-20T07:23:01.165Z,19.27
2024-01-20T07:25:27.877Z,18.63
2024-01-20T07:27:54.623Z,19.17
2024-01-20T07:30:21.605Z,17.67
2024-01-20T07:32:48.318Z,17.10
2024-01-20T07:35:17.549Z,15.90
2024-01-20T07:37:46.328Z,18.10
2024-01-20T07:40:13.270Z,19.87
2024-01-20T07:42:41.579Z,17.93
2024-01-20T07:45:12.284Z,15.83
2024-01-20T07:47:38.974Z,16.23
2024-01-20T07:50:06.157Z,19.20
2024-01-20T07:52:32.948Z,16.50
2024-01-20T07:54:59.532Z,15.63
2024-01-20T07:57:26.224Z,17.13
2024-01-20T07:59:52.671Z,17.03
2024-01-20T08:02:19.677Z,17.13
2024-01-20T08:04:46.808Z,16.63
2024-01-20T08:07:13.943Z,17.73
2024-01-20T08:09:40.844Z,17.97
2024-01-20T08:12:08.001Z,19.23
2024-01-20T08:14:34.977Z,18.63
2024-01-20T08:17:01.557Z,16.17
2024-01-20T08:19:29.896Z,17.93
2024-01-20T08:21:57.109Z,17.57
2024-01-20T08:24:25.542Z,16.70
2024-01-20T08:26:52.901Z,17.97
2024-01-20T08:29:21.239Z,16.97
2024-01-20T08:31:50.976Z,18.57
2024-01-20T08:34:21.189Z,18.97
2024-01-20T08:36:48.445Z,19.53
2024-01-20T08:39:18.467Z,18.03
2024-01-20T08:41:45.160Z,18.80
2024-01-20T08:44:11.990Z,18.17
2024-01-20T08:46:38.815Z,19.00
2024-01-20T08:49:08.703Z,19.77
2024-01-20T08:51:35.497Z,19.20
2024-01-20T08:54:02.422Z,21.67
2024-01-20T08:56:29.198Z,19.70
2024-01-20T08:58:56.000Z,20.10
2024-01-20T09:01:22.592Z,20.93
2024-01-20T09:03:49.301Z,20.00
2024-01-20T09:06:19.844Z,18.40
2024-01-20T09:08:46.672Z,19.23
2024-01-20T09:11:13.639Z,18.47
2024-01-20T09:13:40.364Z,18.83
2024-01-20T09:16:07.462Z,18.70
2024-01-20T09:18:37.155Z,19.80
2024-01-20T09:21:04.029Z,19.67
2024-01-20T09:23:30.580Z,19.87
2024-01-20T09:25:57.327Z,21.33
2024-01-20T09:28:23.885Z,17.67
2024-01-20T09:30:50.859Z,16.90
2024-01-20T09:33:17.755Z,17.83
2024-01-20T09:35:47.021Z,19.70
2024-01-20T09:38:13.825Z,18.77
2024-01-20T09:40:40.883Z,18.60
2024-01-20T09:43:08.328Z,17.33
2024-01-20T09:45:40.348Z,19.73
2024-01-20T09:48:08.617Z,18.77
2024-01-20T09:50:36.046Z,16.67
2024-01-20T09:53:15.734Z,19.50
2024-01-20T09:55:43.948Z,17.33
2024-01-20T09:58:14.555Z,17.40
2024-01-20T10:00:42.356Z,19.23
2024-01-20T10:03:10.899Z,15.80
2024-01-20T10:05:38.342Z,16.70
2024-01-20T10:08:08.567Z,16.63
2024-01-20T10:10:35.680Z,16.43
2024-01-20T10:13:02.658Z,15.83
2024-01-20T10:15:34.063Z,18.43
2024-01-20T10:20:35.258Z,15.37
2024-01-20T10:23:03.646Z,17.17
2024-01-20T10:25:30.482Z,16.37
2024-01-20T10:27:57.071Z,16.97
2024-01-20T10:30:24.454Z,15.87
2024-01-20T10:35:20.810Z,15.33
2024-01-20T10:37:50.031Z,16.27
2024-01-20T10:40:16.836Z,14.43
2024-01-20T10:42:48.722Z,14.47
2024-01-20T10:45:19.290Z,13.68
2024-01-20T10:48:00.130Z,15.15
2024-01-20T10:50:29.770Z,15.05
2024-01-20T10:52:56.797Z,14.63
2024-01-20T10:55:23.689Z,14.25
2024-01-20T10:57:51.059Z,14.45
2024-01-20T11:00:19.034Z,14.55
2024-01-20T11:02:46.701Z,13.10
2024-01-20T11:05:23.095Z,15.52
2024-01-20T11:08:23.256Z,13.93
2024-01-20T11:10:53.005Z,15.02
2024-01-20T11:13:19.503Z,15.65
2024-01-20T11:15:51.391Z,15.23
2024-01-20T11:18:22.073Z,14.80
2024-01-20T11:20:58.901Z,16.95
2024-01-20T11:23:26.470Z,15.48
2024-01-20T11:25:53.021Z,12.57
2024-01-20T11:28:34.896Z,13.38
2024-01-20T11:31:01.869Z,14.82
2024-01-20T11:33:28.627Z,14.02
2024-01-20T11:35:55.184Z,14.00
2024-01-20T11:38:22.348Z,16.55
2024-01-20T11:41:02.647Z,15.15
2024-01-20T11:43:29.426Z,16.05
2024-01-20T11:45:59.170Z,13.35
2024-01-20T11:48:26.724Z,15.27
2024-01-20T11:50:53.952Z,16.17
2024-01-20T11:53:23.835Z,14.60
2024-01-20T11:56:03.076Z,14.07
2024-01-20T11:58:31.269Z,14.80
2024-01-20T12:00:59.283Z,14.60
2024-01-20T12:03:28.085Z,17.13
2024-01-20T12:05:55.509Z,15.57
2024-01-20T12:08:22.461Z,14.35
2024-01-20T12:10:50.290Z,13.18
2024-01-20T12:13:17.791Z,13.40
2024-01-20T12:15:46.757Z,15.40
2024-01-20T12:18:13.497Z,15.32
2024-01-20T12:20:41.159Z,15.27
2024-01-20T12:23:07.794Z,13.77
2024-01-20T12:25:37.224Z,14.00
2024-01-20T12:28:04.282Z,14.82
2024-01-20T12:30:30.890Z,16.23
2024-01-20T12:32:57.974Z,13.73
2024-01-20T12:35:24.811Z,14.45
2024-01-20T12:37:51.308Z,12.75
2024-01-20T12:40:17.877Z,15.40
2024-01-20T12:42:44.432Z,14.32
2024-01-20T12:45:12.933Z,13.23
2024-01-20T12:47:40.045Z,13.45
2024-01-20T12:50:07.530Z,13.20
2024-01-20T12:52:34.720Z,13.48
2024-01-20T12:55:01.291Z,13.52
2024-01-20T12:57:27.828Z,15.93
2024-01-20T12:59:54.793Z,14.63
2024-01-20T13:02:21.539Z,14.15
2024-01-20T13:04:48.205Z,13.15
2024-01-20T13:07:15.499Z,15.00
2024-01-20T13:09:42.704Z,14.27
2024-01-20T13:12:09.733Z,14.70
2024-01-20T13:14:36.654Z,13.65
2024-01-20T13:17:04.035Z,14.40
2024-01-20T13:19:31.105Z,13.65
2024-01-20T13:21:58.408Z,13.27
2024-01-20T13:24:25.265Z,13.57
2024-01-20T13:26:51.837Z,12.63
2024-01-20T13:29:18.600Z,13.20
2024-01-20T13:31:45.213Z,11.25
2024-01-20T13:34:11.865Z,11.80
2024-01-20T13:36:38.581Z,10.85
2024-01-20T13:39:06.341Z,12.05
2024-01-20T13:41:34.675Z,11.38
2024-01-20T13:44:01.290Z,11.50
2024-01-20T13:46:27.834Z,12.38
2024-01-20T13:48:54.606Z,11.20
2024-01-20T13:51:22.956Z,11.30
2024-01-20T13:53:49.569Z,11.20
2024-01-20T13:56:16.070Z,10.63
2024-01-20T13:58:42.664Z,11.63
2024-01-20T14:01:09.534Z,10.65
2024-01-20T14:03:36.435Z,10.20
2024-01-20T14:06:03.867Z,10.95
2024-01-20T14:08:30.627Z,9.90
2024-01-20T14:10:57.108Z,9.93
2024-01-20T14:13:23.647Z,9.55
2024-01-20T14:15:51.756Z,9.40
2024-01-20T14:18:18.610Z,8.80
2024-01-20T14:20:45.377Z,10.55
2024-01-20T14:23:12.253Z,10.75
2024-01-20T14:25:38.804Z,9.48
2024-01-20T14:28:09.781Z,9.65
2024-01-20T14:30:36.445Z,10.25
2024-01-20T14:33:04.171Z,10.10
2024-01-20T14:35:30.863Z,10.25
2024-01-20T14:37:57.774Z,10.95
2024-01-20T14:40:24.779Z,8.48
2024-01-20T14:42:51.866Z,9.77
2024-01-20T14:45:19.602Z,9.60
2024-01-20T14:47:48.578Z,10.15
2024-01-20T14:50:15.469Z,11.57
2024-01-20T14:52:41.986Z,9.85
2024-01-20T14:55:09.081Z,11.75
2024-01-20T14:57:38.345Z,10.43
2024-01-20T15:00:08.651Z,11.40
2024-01-20T15:02:36.018Z,10.60
2024-01-20T15:05:02.987Z,10.75
2024-01-20T15:07:32.382Z,11.52
2024-01-20T15:10:00.729Z,12.73
2024-01-20T15:12:30.616Z,13.10
2024-01-20T15:14:58.628Z,12.30
2024-01-20T15:17:25.258Z,12.30
2024-01-20T15:19:51.896Z,12.37
2024-01-20T15:22:19.286Z,11.53
2024-01-20T15:24:45.986Z,12.35
2024-01-20T15:27:12.936Z,11.97
2024-01-20T15:29:39.670Z,13.07
2024-01-20T15:32:06.790Z,12.77
2024-01-20T15:34:33.403Z,13.30
2024-01-20T15:37:00.098Z,13.10
2024-01-20T15:39:26.996Z,13.20
2024-01-20T15:41:53.851Z,14.03
2024-01-20T15:44:20.401Z,11.47
2024-01-20T15:46:47.131Z,12.80
2024-01-20T15:49:15.349Z,12.80
2024-01-20T15:51:43.662Z,12.03
2024-01-20T15:54:10.670Z,12.20
2024-01-20T15:56:42.569Z,11.37
2024-01-20T15:59:09.355Z,12.40
2024-01-20T16:01:36.014Z,11.80
2024-01-20T16:04:04.107Z,11.10
2024-01-20T16:06:31.227Z,11.00
2024-01-20T16:08:58.052Z,11.77
2024-01-20T16:11:28.241Z,10.73
2024-01-20T16:13:54.893Z,9.83
2024-01-20T16:16:21.877Z,10.70
2024-01-20T16:18:49.103Z,9.70
2024-01-20T16:21:41.381Z,10.33
2024-01-20T16:24:08.224Z,9.27
2024-01-20T16:26:34.771Z,10.27
2024-01-20T16:29:01.254Z,10.97
2024-01-20T16:31:28.580Z,9.77
2024-01-20T16:33:56.979Z,9.30
2024-01-20T16:36:23.976Z,10.63
2024-01-20T16:38:53.734Z,13.37
2024-01-20T16:41:20.531Z,11.67
2024-01-20T16:43:47.544Z,10.07
2024-01-20T16:46:14.091Z,9.00
2024-01-20T16:48:43.630Z,9.40
2024-01-20T16:51:15.329Z,10.87
2024-01-20T16:53:49.184Z,11.20
2024-01-20T16:56:15.665Z,10.50
2024-01-20T16:58:42.251Z,11.60
2024-01-20T17:01:09.051Z,11.40
2024-01-20T17:03:36.239Z,12.43
2024-01-20T17:06:02.925Z,11.43
2024-01-20T17:08:29.514Z,12.07
2024-01-20T17:10:56.061Z,12.93
2024-01-20T17:13:22.676Z,10.83
2024-01-20T17:15:49.286Z,12.37
2024-01-20T17:18:18.638Z,13.00
2024-01-20T17:20:45.406Z,11.87
2024-01-20T17:23:12.644Z,11.80
2024-01-20T17:25:39.101Z,11.50
2024-01-20T17:28:05.784Z,11.90
2024-01-20T17:30:32.269Z,10.57
2024-01-20T17:32:58.787Z,11.57
2024-01-20T17:35:25.401Z,10.93
2024-01-20T17:37:54.606Z,11.60
2024-01-20T17:40:21.542Z,11.87
2024-01-20T17:42:48.058Z,11.40
2024-01-20T17:45:16.315Z,11.37
2024-01-20T17:47:45.607Z,11.83
2024-01-20T17:50:12.720Z,11.13
2024-01-20T17:52:42.132Z,10.57
2024-01-20T17:55:08.977Z,10.77
2024-01-20T17:57:35.540Z,10.77
2024-01-20T18:00:02.199Z,10.37
2024-01-20T18:02:28.702Z,11.33
2024-01-20T18:04:55.686Z,12.37
2024-01-20T18:07:22.282Z,12.37
2024-01-20T18:09:48.744Z,11.00
2024-01-20T18:12:15.345Z,11.60
2024-01-20T18:14:41.960Z,10.57
2024-01-20T18:17:09.906Z,9.97
2024-01-20T18:19:36.649Z,10.40
2024-01-20T18:22:03.526Z,14.13
2024-01-20T18:24:30.200Z,13.67
2024-01-20T18:26:56.889Z,11.37
2024-01-20T18:29:23.328Z,12.27
2024-01-20T18:31:50.138Z,14.20
2024-01-20T18:34:17.262Z,12.77
2024-01-20T18:36:43.954Z,12.17
2024-01-20T18:39:10.570Z,11.20
2024-01-20T18:41:37.050Z,11.47
2024-01-20T18:44:06.545Z,14.33
2024-01-20T18:46:36.063Z,15.07
2024-01-20T18:49:02.770Z,11.23
2024-01-20T18:51:31.901Z,11.70
2024-01-20T18:53:58.386Z,11.27
2024-01-20T18:56:25.116Z,10.20
2024-01-20T18:58:51.676Z,10.70
2024-01-20T19:01:18.216Z,11.87
2024-01-20T19:03:45.533Z,11.07
2024-01-20T19:06:12.546Z,9.80
2024-01-20T19:08:39.168Z,11.70
2024-01-20T19:11:08.382Z,11.53
2024-01-20T19:13:34.886Z,11.33
2024-01-20T19:16:03.036Z,10.63
2024-01-20T19:18:29.883Z,11.47
2024-01-20T19:20:56.620Z,10.57
2024-01-20T19:23:23.284Z,9.07
2024-01-20T19:25:49.736Z,10.63
2024-01-20T19:28:16.257Z,13.17
2024-01-20T19:30:42.700Z,10.00
2024-01-20T19:33:09.731Z,9.07
2024-01-20T19:35:36.373Z,11.40
2024-01-20T19:38:03.643Z,9.70
2024-01-20T19:40:30.537Z,9.77
2024-01-20T19:42:57.260Z,9.17
2024-01-20T19:45:23.918Z,10.60
2024-01-20T19:47:50.609Z,8.70
2024-01-20T19:50:17.763Z,10.07
2024-01-20T19:52:44.376Z,8.53
2024-01-20T19:55:11.065Z,9.47
2024-01-20T19:57:37.813Z,9.50
2024-01-20T20:00:05.602Z,11.57
2024-01-20T20:02:40.282Z,9.73
2024-01-20T20:05:07.144Z,8.77
2024-01-20T20:07:36.748Z,10.73
2024-01-20T20:10:04.094Z,9.27
2024-01-20T20:12:31.947Z,10.03
2024-01-20T20:14:58.778Z,10.87
2024-01-20T20:17:25.626Z,10.57
2024-01-20T20:19:52.198Z,9.60
2024-01-20T20:22:18.798Z,9.90
2024-01-20T20:24:46.310Z,11.07
2024-01-20T20:27:13.260Z,9.50
2024-01-20T20:29:40.232Z,10.90
2024-01-20T20:32:07.362Z,11.13
2024-01-20T20:34:34.267Z,11.17
2024-01-20T20:37:01.208Z,10.97
2024-01-20T20:39:30.904Z,10.90
2024-01-20T20:41:58.231Z,11.23
2024-01-20T20:44:24.723Z,10.00
2024-01-20T20:47:01.666Z,12.20
2024-01-20T20:49:29.279Z,10.87
2024-01-20T20:51:55.952Z,11.87
2024-01-20T20:54:22.845Z,12.23
2024-01-20T20:56:49.542Z,11.87
2024-01-20T20:59:16.458Z,12.93
2024-01-20T21:01:44.429Z,10.83
2024-01-20T21:04:11.690Z,11.67
2024-01-20T21:06:39.177Z,17.87
2024-01-20T21:09:06.905Z,12.47
2024-01-20T21:11:33.502Z,11.57
2024-01-20T21:14:00.468Z,13.20
2024-01-20T21:16:30.439Z,12.97
2024-01-20T21:18:58.115Z,11.53
2024-01-20T21:21:24.886Z,13.20
2024-01-20T21:23:51.506Z,12.07
2024-01-20T21:26:22.788Z,12.27
2024-01-20T21:28:49.854Z,13.83
2024-01-20T21:31:17.086Z,12.07
2024-01-20T21:33:45.043Z,13.43
2024-01-20T21:36:12.143Z,12.60
2024-01-20T21:38:42.643Z,12.73
2024-01-20T21:41:11.930Z,11.57
2024-01-20T21:43:38.435Z,11.77
2024-01-20T21:46:05.041Z,13.73
2024-01-20T21:48:31.658Z,12.33
2024-01-20T21:50:58.562Z,12.30
2024-01-20T21:53:25.260Z,11.60
2024-01-20T21:55:51.849Z,10.87
2024-01-20T21:58:18.436Z,10.53
2024-01-20T22:00:44.995Z,12.10
2024-01-20T22:03:11.636Z,9.70
2024-01-20T22:05:39.278Z,11.40
2024-01-20T22:08:06.093Z,10.50
2024-01-20T22:10:33.410Z,10.20
2024-01-20T22:12:59.990Z,10.43
2024-01-20T22:15:26.559Z,9.93
2024-01-20T22:17:53.421Z,10.13
2024-01-20T22:20:20.030Z,10.37
2024-01-20T22:22:46.617Z,10.10
2024-01-20T22:25:14.339Z,10.90
2024-01-20T22:27:40.934Z,9.23
2024-01-20T22:30:10.137Z,10.63
2024-01-20T22:32:40.484Z,9.50
2024-01-20T22:35:07.528Z,10.03
2024-01-20T22:37:34.187Z,8.77
2024-01-20T22:40:03.064Z,10.47
2024-01-20T22:42:29.576Z,10.17
2024-01-20T22:44:56.170Z,10.33
2024-01-20T22:47:23.447Z,9.97
2024-01-20T22:49:50.877Z,9.00
2024-01-20T22:52:17.468Z,9.17
2024-01-20T22:54:45.166Z,8.67
2024-01-20T22:57:12.022Z,8.83
2024-01-20T22:59:38.639Z,8.97
2024-01-20T23:02:05.748Z,9.57
2024-01-20T23:04:32.513Z,9.63
2024-01-20T23:06:59.669Z,8.90
2024-01-20T23:09:27.939Z,8.63
2024-01-20T23:11:55.291Z,8.60
2024-01-20T23:14:22.185Z,8.10
2024-01-20T23:16:48.997Z,8.33
2024-01-20T23:19:15.606Z,8.50
2024-01-20T23:21:42.131Z,8.90
2024-01-20T23:24:09.054Z,9.47
2024-01-20T23:26:36.148Z,9.70
2024-01-20T23:29:02.655Z,8.90
2024-01-20T23:31:29.194Z,19.80
2024-01-20T23:33:55.694Z,11.27
2024-01-20T23:36:22.229Z,8.03
2024-01-20T23:38:48.666Z,9.50
2024-01-20T23:41:15.423Z,9.00
2024-01-20T23:43:42.971Z,8.53
2024-01-20T23:46:11.380Z,8.00
2024-01-20T23:48:37.983Z,10.03
2024-01-20T23:51:05.032Z,9.20
2024-01-20T23:53:32.502Z,8.63
2024-01-20T23:55:59.013Z,8.97
2024-01-20T23:58:25.591Z,9.07
